createdAt,value
2022-12-12T00:00:26.112Z,12.93
2022-12-12T00:03:28.131Z,13.88
2022-12-12T00:06:30.325Z,12.43
2022-12-12T00:09:32.246Z,14.18
2022-12-12T00:12:34.349Z,12.43
2022-12-12T00:15:36.677Z,14.30
2022-12-12T00:18:39.585Z,12.65
2022-12-12T00:21:43.738Z,12.50
2022-12-12T00:24:45.659Z,12.88
2022-12-12T00:27:47.580Z,13.80
2022-12-12T00:30:49.613Z,13.85
2022-12-12T00:33:51.888Z,14.10
2022-12-12T00:36:53.721Z,12.52
2022-12-12T00:39:55.941Z,13.32
2022-12-12T00:42:57.927Z,14.13
2022-12-12T00:46:01.561Z,13.82
2022-12-12T00:49:03.869Z,14.32
2022-12-12T00:52:05.788Z,13.05
2022-12-12T00:55:08.219Z,14.13
2022-12-12T00:58:10.275Z,13.68
2022-12-12T01:01:14.828Z,14.23
2022-12-12T01:04:16.995Z,14.90
2022-12-12T01:07:19.021Z,13.50
2022-12-12T01:10:21.267Z,14.80
2022-12-12T01:13:23.514Z,14.85
2022-12-12T01:16:25.746Z,14.10
2022-12-12T01:19:27.791Z,15.23
2022-12-12T01:22:29.733Z,15.40
2022-12-12T01:25:31.554Z,15.30
2022-12-12T01:28:34.567Z,16.08
2022-12-12T01:31:36.533Z,14.00
2022-12-12T01:34:38.833Z,15.10
2022-12-12T01:37:44.053Z,15.13
2022-12-12T01:40:46.171Z,14.82
2022-12-12T01:43:48.752Z,17.15
2022-12-12T01:46:50.654Z,15.40
2022-12-12T01:49:57.980Z,15.63
2022-12-12T01:52:59.947Z,15.02
2022-12-12T01:56:05.165Z,16.77
2022-12-12T01:59:10.370Z,14.35
2022-12-12T02:02:12.769Z,14.27
2022-12-12T02:05:28.495Z,14.88
2022-12-12T02:08:30.850Z,15.45
2022-12-12T02:11:35.842Z,15.20
2022-12-12T02:14:43.713Z,15.20
2022-12-12T02:18:00.990Z,17.15
2022-12-12T02:21:35.405Z,15.98
2022-12-12T02:24:55.329Z,17.15
2022-12-12T02:28:50.366Z,17.58
2022-12-12T02:32:29.786Z,16.73
2022-12-12T02:36:21.475Z,15.35
2022-12-12T02:39:44.791Z,15.20
2022-12-12T02:42:58.924Z,17.42
2022-12-12T02:46:07.192Z,17.27
2022-12-12T02:49:23.895Z,15.75
2022-12-12T02:52:26.609Z,15.50
2022-12-12T02:55:36.176Z,16.90
2022-12-12T02:58:38.718Z,15.82
2022-12-12T03:01:46.573Z,16.15
2022-12-12T03:05:19.470Z,15.75
2022-12-12T03:08:56.131Z,14.90
2022-12-12T03:12:04.606Z,14.85
2022-12-12T03:15:23.710Z,14.20
2022-12-12T03:18:41.450Z,14.10
2022-12-12T03:22:00.765Z,15.63
2022-12-12T03:25:25.153Z,15.43
2022-12-12T03:28:53.472Z,15.02
2022-12-12T03:32:01.573Z,13.98
2022-12-12T03:35:11.413Z,13.90
2022-12-12T03:38:20.159Z,16.05
2022-12-12T03:41:27.547Z,15.27
2022-12-12T03:44:41.647Z,13.75
2022-12-12T03:47:49.324Z,14.98
2022-12-12T03:50:55.996Z,14.77
2022-12-12T03:54:08.515Z,15.60
2022-12-12T03:57:24.022Z,15.30
2022-12-12T04:03:55.251Z,15.10
2022-12-12T04:07:03.187Z,14.77
2022-12-12T04:10:06.826Z,14.50
2022-12-12T04:13:32.468Z,15.07
2022-12-12T04:16:40.036Z,15.95
2022-12-12T04:19:41.947Z,13.95
2022-12-12T04:22:55.130Z,16.23
2022-12-12T04:26:09.920Z,15.18
2022-12-12T04:29:50.679Z,14.90
2022-12-12T04:33:07.808Z,14.88
2022-12-12T04:36:12.201Z,15.43
2022-12-12T04:39:16.883Z,15.48
2022-12-12T04:42:22.040Z,14.23
2022-12-12T04:45:31.089Z,14.82
2022-12-12T04:48:45.510Z,12.50
2022-12-12T04:51:52.998Z,12.35
2022-12-12T04:55:17.278Z,12.18
2022-12-12T04:58:19.425Z,13.43
2022-12-12T05:01:53.083Z,13.48
2022-12-12T05:05:04.093Z,13.88
2022-12-12T05:08:24.153Z,13.13
2022-12-12T05:11:26.081Z,13.70
2022-12-12T05:14:30.650Z,13.50
2022-12-12T05:17:40.280Z,12.82
2022-12-12T05:20:42.279Z,12.68
2022-12-12T05:23:44.147Z,12.27
2022-12-12T05:26:46.126Z,12.15
2022-12-12T05:29:48.148Z,12.63
2022-12-12T05:32:50.645Z,13.10
2022-12-12T05:35:52.474Z,13.27
2022-12-12T05:38:54.497Z,13.07
2022-12-12T05:41:56.355Z,13.80
2022-12-12T05:44:58.221Z,13.07
2022-12-12T05:48:00.182Z,12.82
2022-12-12T05:51:03.492Z,14.82
2022-12-12T05:54:05.424Z,12.88
2022-12-12T05:57:07.710Z,13.05
2022-12-12T06:00:10.237Z,12.77
2022-12-12T06:03:12.136Z,11.73
2022-12-12T06:06:13.992Z,12.45
2022-12-12T06:09:15.915Z,12.00
2022-12-12T06:12:17.844Z,13.65
2022-12-12T06:15:19.713Z,12.82
2022-12-12T06:18:21.652Z,13.10
2022-12-12T06:21:23.740Z,12.73
2022-12-12T06:24:25.585Z,11.88
2022-12-12T06:27:27.834Z,10.60
2022-12-12T06:30:29.758Z,12.52
2022-12-12T06:33:32.502Z,12.55
2022-12-12T06:36:34.478Z,11.00
2022-12-12T06:39:37.387Z,11.57
2022-12-12T06:42:47.680Z,10.70
2022-12-12T06:45:50.321Z,11.50
2022-12-12T06:48:52.934Z,11.15
2022-12-12T06:51:54.893Z,9.85
2022-12-12T06:54:56.752Z,11.18
2022-12-12T06:57:58.677Z,10.30
2022-12-12T07:01:00.582Z,11.48
2022-12-12T07:04:02.574Z,9.35
2022-12-12T07:07:04.451Z,10.57
2022-12-12T07:10:06.990Z,10.25
2022-12-12T07:13:08.878Z,10.65
2022-12-12T07:16:11.139Z,10.05
2022-12-12T07:19:13.114Z,9.32
2022-12-12T07:22:15.183Z,10.05
2022-12-12T07:25:17.171Z,11.85
2022-12-12T07:28:19.099Z,11.05
2022-12-12T07:31:22.756Z,9.30
2022-12-12T07:34:24.838Z,10.68
2022-12-12T07:37:26.721Z,10.10
2022-12-12T07:40:30.920Z,9.50
2022-12-12T07:43:38.582Z,9.50
2022-12-12T07:46:44.990Z,10.18
2022-12-12T07:49:47.061Z,9.23
2022-12-12T07:52:48.935Z,9.55
2022-12-12T07:55:50.821Z,10.05
2022-12-12T07:58:52.732Z,9.38
2022-12-12T08:01:54.757Z,9.40
2022-12-12T08:04:56.712Z,11.48
2022-12-12T08:07:58.683Z,10.90
2022-12-12T08:11:04.049Z,10.90
2022-12-12T08:14:12.713Z,11.27
2022-12-12T08:17:15.011Z,11.57
2022-12-12T08:20:16.915Z,11.57
2022-12-12T08:23:18.797Z,13.27
2022-12-12T08:26:20.625Z,12.23
2022-12-12T08:29:22.726Z,11.95
2022-12-12T08:32:24.576Z,10.98
2022-12-12T08:35:30.050Z,11.02
2022-12-12T08:38:31.879Z,12.18
2022-12-12T08:41:38.731Z,11.55
2022-12-12T08:44:40.550Z,11.90
2022-12-12T08:47:42.412Z,11.75
2022-12-12T08:50:44.714Z,11.98
2022-12-12T08:53:47.564Z,12.52
2022-12-12T08:56:49.437Z,13.73
2022-12-12T08:59:51.355Z,12.95
2022-12-12T09:02:53.338Z,13.27
2022-12-12T09:05:55.250Z,13.35
2022-12-12T09:08:57.699Z,13.80
2022-12-12T09:11:59.701Z,12.35
2022-12-12T09:15:01.581Z,13.00
2022-12-12T09:18:04.280Z,13.50
2022-12-12T09:21:06.852Z,12.88
2022-12-12T09:24:09.097Z,14.10
2022-12-12T09:27:11.023Z,14.00
2022-12-12T09:30:13.303Z,12.75
2022-12-12T09:36:18.767Z,13.80
2022-12-12T09:39:20.599Z,14.07
2022-12-12T09:42:26.655Z,14.02
2022-12-12T09:45:30.311Z,14.90
2022-12-12T09:48:47.334Z,12.95
2022-12-12T09:51:51.861Z,13.90
2022-12-12T09:54:53.946Z,13.13
2022-12-12T09:58:04.643Z,13.82
2022-12-12T10:01:43.273Z,14.02
2022-12-12T10:05:05.083Z,15.25
2022-12-12T10:08:31.015Z,13.93
2022-12-12T10:11:36.998Z,12.82
2022-12-12T10:14:42.175Z,13.60
2022-12-12T10:17:47.784Z,15.23
2022-12-12T10:20:53.629Z,14.05
2022-12-12T10:24:08.177Z,14.38
2022-12-12T10:27:12.969Z,14.05
2022-12-12T10:30:21.090Z,13.65
2022-12-12T10:33:53.252Z,14.13
2022-12-12T10:36:58.180Z,12.63
2022-12-12T10:40:11.743Z,13.82
2022-12-12T10:43:38.007Z,14.00
2022-12-12T10:47:06.235Z,13.80
2022-12-12T10:50:23.839Z,13.52
2022-12-12T10:53:26.020Z,14.00
2022-12-12T10:56:28.466Z,12.85
2022-12-12T10:59:30.278Z,11.98
2022-12-12T11:02:40.375Z,13.23
2022-12-12T11:05:42.357Z,13.07
2022-12-12T11:09:07.057Z,11.50
2022-12-12T11:12:16.395Z,14.07
2022-12-12T11:18:22.392Z,12.00
2022-12-12T11:21:24.443Z,13.60
2022-12-12T11:24:32.415Z,13.93
2022-12-12T11:27:38.091Z,13.75
2022-12-12T11:30:43.402Z,14.85
2022-12-12T11:33:52.780Z,13.82
2022-12-12T11:36:59.001Z,13.68
2022-12-12T11:40:04.413Z,12.93
2022-12-12T11:43:27.932Z,15.38
2022-12-12T11:46:32.105Z,14.25
2022-12-12T11:49:34.211Z,13.43
2022-12-12T12:03:55.113Z,12.13
2022-12-12T12:07:21.513Z,12.93
2022-12-12T12:10:42.571Z,12.40
2022-12-12T12:14:10.343Z,13.35
2022-12-12T12:17:28.761Z,12.65
2022-12-12T12:20:55.287Z,12.27
2022-12-12T12:24:16.139Z,14.23
2022-12-12T12:27:59.833Z,12.25
2022-12-12T12:31:12.989Z,13.43
2022-12-12T12:34:24.485Z,13.98
2022-12-12T12:37:46.571Z,13.98
2022-12-12T12:41:27.017Z,12.48
2022-12-12T12:45:09.085Z,13.18
2022-12-12T12:48:26.659Z,11.98
2022-12-12T12:51:38.987Z,12.80
2022-12-12T12:54:45.941Z,13.98
2022-12-12T12:57:59.140Z,13.68
2022-12-12T13:01:08.163Z,12.68
2022-12-12T13:04:31.069Z,12.70
2022-12-12T13:08:00.175Z,14.02
2022-12-12T13:11:18.015Z,12.82
2022-12-12T13:14:49.668Z,13.00
2022-12-12T13:18:06.361Z,13.48
2022-12-12T13:21:33.060Z,13.07
2022-12-12T13:24:59.964Z,12.15
2022-12-12T13:28:11.308Z,12.68
2022-12-12T13:31:37.254Z,11.88
2022-12-12T13:34:44.688Z,12.07
2022-12-12T13:37:51.428Z,12.35
2022-12-12T13:41:10.398Z,12.82
2022-12-12T13:44:42.677Z,12.85
2022-12-12T13:47:50.572Z,12.85
2022-12-12T13:51:32.575Z,14.07
2022-12-12T13:54:34.503Z,13.20
2022-12-12T13:57:40.572Z,12.75
2022-12-12T14:00:43.495Z,14.77
2022-12-12T14:03:46.990Z,12.70
2022-12-12T14:07:01.965Z,13.40
2022-12-12T14:10:40.028Z,13.68
2022-12-12T14:20:08.251Z,12.93
2022-12-12T14:23:13.325Z,13.40
2022-12-12T14:26:27.414Z,14.52
2022-12-12T14:29:32.901Z,10.55
2022-12-12T14:32:48.994Z,12.88
2022-12-12T14:36:04.387Z,14.13
2022-12-12T14:39:47.419Z,11.88
2022-12-12T14:43:22.454Z,12.88
2022-12-12T14:46:25.696Z,12.38
2022-12-12T14:49:27.793Z,12.57
2022-12-12T14:52:30.321Z,13.15
2022-12-12T14:55:32.308Z,10.93
2022-12-12T14:58:38.040Z,12.57
2022-12-12T15:01:42.111Z,12.55
2022-12-12T15:04:51.462Z,12.27
2022-12-12T15:07:58.910Z,13.23
2022-12-12T15:11:01.223Z,12.95
2022-12-12T15:14:07.262Z,13.05
2022-12-12T15:17:26.494Z,13.25
2022-12-12T15:20:30.775Z,13.48
2022-12-12T15:23:33.562Z,11.63
2022-12-12T15:26:35.946Z,12.85
2022-12-12T15:29:41.154Z,12.85
2022-12-12T15:32:47.409Z,14.07
2022-12-12T15:36:02.481Z,13.95
2022-12-12T15:39:14.263Z,14.18
2022-12-12T15:42:19.022Z,13.27
2022-12-12T15:45:32.175Z,14.63
2022-12-12T15:48:34.507Z,12.75
2022-12-12T15:51:36.486Z,13.60
2022-12-12T15:54:47.027Z,14.20
2022-12-12T15:57:52.100Z,14.13
2022-12-12T16:01:06.829Z,15.15
2022-12-12T16:04:08.898Z,14.05
2022-12-12T16:07:22.411Z,15.13
2022-12-12T16:10:25.189Z,14.82
2022-12-12T16:13:39.046Z,17.65
2022-12-12T16:16:48.704Z,16.50
2022-12-12T16:20:06.754Z,16.13
2022-12-12T16:23:33.914Z,16.40
2022-12-12T16:26:35.849Z,15.45
2022-12-12T16:29:38.049Z,17.00
2022-12-12T16:32:41.137Z,17.00
2022-12-12T16:35:44.378Z,15.77
2022-12-12T16:38:46.408Z,16.25
2022-12-12T16:41:49.279Z,15.57
2022-12-12T16:44:51.457Z,16.35
2022-12-12T16:47:53.783Z,18.88
2022-12-12T16:50:58.394Z,18.60
2022-12-12T16:54:03.048Z,17.35
2022-12-12T16:57:05.061Z,17.35
2022-12-12T17:00:08.094Z,16.75
2022-12-12T17:03:13.555Z,16.80
2022-12-12T17:06:16.336Z,14.18
2022-12-12T17:09:18.366Z,13.20
2022-12-12T17:12:21.507Z,10.68
2022-12-12T17:15:27.076Z,12.35
2022-12-12T17:18:29.145Z,14.32
2022-12-12T17:21:31.063Z,15.23
2022-12-12T17:24:33.071Z,15.15
2022-12-12T17:27:36.086Z,16.40
2022-12-12T17:30:40.000Z,14.20
2022-12-12T17:33:49.891Z,12.90
2022-12-12T17:36:52.372Z,13.98
2022-12-12T17:39:54.590Z,13.93
2022-12-12T17:42:57.344Z,14.18
2022-12-12T17:46:10.577Z,13.30
2022-12-12T17:49:13.443Z,15.63
2022-12-12T17:52:15.664Z,16.52
2022-12-12T17:55:54.694Z,15.32
2022-12-12T17:58:42.566Z,14.43
2022-12-12T18:01:44.713Z,14.43
2022-12-12T18:04:46.893Z,14.70
2022-12-12T18:07:49.103Z,15.20
2022-12-12T18:10:51.051Z,15.15
2022-12-12T18:13:54.347Z,15.65
2022-12-12T18:16:56.441Z,14.32
2022-12-12T18:19:58.750Z,15.13
2022-12-12T18:23:00.605Z,15.68
2022-12-12T18:26:09.031Z,14.90
2022-12-12T18:29:13.012Z,15.63
2022-12-12T18:32:14.993Z,14.93
2022-12-12T18:35:16.994Z,15.52
2022-12-12T18:38:22.857Z,17.45
2022-12-12T18:44:45.552Z,16.35
2022-12-12T18:47:56.666Z,15.05
2022-12-12T18:51:30.249Z,16.58
2022-12-12T18:54:32.693Z,14.43
2022-12-12T18:57:34.592Z,13.98
2022-12-12T19:00:36.839Z,15.25
2022-12-12T19:03:42.203Z,12.95
2022-12-12T19:06:46.276Z,13.15
2022-12-12T19:09:50.733Z,13.77
2022-12-12T19:12:52.562Z,16.55
2022-12-12T19:15:54.541Z,14.65
2022-12-12T19:18:56.361Z,14.25
2022-12-12T19:21:58.231Z,15.27
2022-12-12T19:25:00.360Z,15.98
2022-12-12T19:28:03.043Z,16.75
2022-12-12T19:31:14.109Z,16.02
2022-12-12T19:34:16.927Z,16.35
2022-12-12T19:37:18.869Z,16.52
2022-12-12T19:40:20.866Z,16.13
2022-12-12T19:43:22.721Z,17.25
2022-12-12T19:46:27.526Z,15.77
2022-12-12T19:49:29.432Z,14.70
2022-12-12T19:52:31.273Z,15.02
2022-12-12T19:55:33.202Z,14.85
2022-12-12T19:58:38.606Z,14.68
2022-12-12T20:01:43.697Z,15.55
2022-12-12T20:04:45.671Z,17.15
2022-12-12T20:07:47.830Z,15.85
2022-12-12T20:10:49.725Z,15.70
2022-12-12T20:13:56.623Z,15.82
2022-12-12T20:17:01.359Z,16.80
2022-12-12T20:20:03.363Z,16.25
2022-12-12T20:23:07.725Z,16.67
2022-12-12T20:26:16.885Z,17.10
2022-12-12T20:29:19.219Z,16.98
2022-12-12T20:32:21.316Z,16.23
2022-12-12T20:35:23.228Z,17.95
2022-12-12T20:38:25.073Z,17.10
2022-12-12T20:41:30.254Z,16.85
2022-12-12T20:44:32.178Z,16.55
2022-12-12T20:47:34.010Z,15.00
2022-12-12T20:50:35.936Z,15.50
2022-12-12T20:53:39.739Z,14.88
2022-12-12T20:56:46.175Z,15.52
2022-12-12T20:59:48.570Z,16.45
2022-12-12T21:02:50.475Z,15.85
2022-12-12T21:05:53.046Z,15.63
2022-12-12T21:08:55.336Z,16.83
2022-12-12T21:11:58.689Z,16.60
2022-12-12T21:15:02.969Z,18.10
2022-12-12T21:18:05.361Z,16.52
2022-12-12T21:21:10.704Z,16.70
2022-12-12T21:24:14.133Z,17.05
2022-12-12T21:27:16.043Z,17.02
2022-12-12T21:30:18.187Z,16.67
2022-12-12T21:33:20.095Z,17.92
2022-12-12T21:36:24.029Z,18.23
2022-12-12T21:39:28.043Z,16.50
2022-12-12T21:42:29.947Z,15.05
2022-12-12T21:45:31.789Z,16.20
2022-12-12T21:48:33.951Z,15.85
2022-12-12T21:51:36.077Z,17.58
2022-12-12T21:54:38.201Z,15.63
2022-12-12T21:57:40.252Z,16.48
2022-12-12T22:00:42.199Z,16.05
2022-12-12T22:03:45.333Z,15.23
2022-12-12T22:06:47.249Z,15.13
2022-12-12T22:09:57.386Z,14.50
2022-12-12T22:13:10.943Z,14.88
2022-12-12T22:16:15.583Z,16.77
2022-12-12T22:19:17.889Z,15.90
2022-12-12T22:22:19.757Z,16.55
2022-12-12T22:25:21.658Z,14.88
2022-12-12T22:28:23.526Z,15.25
2022-12-12T22:31:28.218Z,17.23
2022-12-12T22:34:30.064Z,14.43
2022-12-12T22:37:34.191Z,15.20
2022-12-12T22:40:36.102Z,15.15
2022-12-12T22:43:38.039Z,16.48
2022-12-12T22:46:43.834Z,16.77
2022-12-12T22:49:46.412Z,16.17
2022-12-12T22:52:48.597Z,15.38
2022-12-12T22:55:51.657Z,16.98
2022-12-12T22:58:54.195Z,14.77
2022-12-12T23:01:58.370Z,15.90
2022-12-12T23:05:01.232Z,15.18
2022-12-12T23:08:03.246Z,15.15
2022-12-12T23:11:13.684Z,15.48
2022-12-12T23:14:18.310Z,16.48
2022-12-12T23:17:20.423Z,15.05
2022-12-12T23:20:22.260Z,14.50
2022-12-12T23:23:26.614Z,15.05
2022-12-12T23:26:31.537Z,14.75
2022-12-12T23:29:33.406Z,15.15
2022-12-12T23:32:35.297Z,14.77
2022-12-12T23:35:37.181Z,14.88
2022-12-12T23:38:39.953Z,14.52
2022-12-12T23:41:42.554Z,13.77
2022-12-12T23:44:44.573Z,14.77
2022-12-12T23:47:46.423Z,13.63
2022-12-12T23:50:48.648Z,13.90
2022-12-12T23:53:50.991Z,14.25
2022-12-12T23:56:53.715Z,12.60
2022-12-12T23:59:55.582Z,14.52
